Time;durP1;ratioP1;P1;durP2;ratioP2;P2;SDS_P1;SDS_P2;PMS_P1;PMS_P2;Temp;Humidity;BMP_temperature;BMP_pressure;BME280_temperature;BME280_humidity;BME280_pressure;Samples;Min_cycle;Max_cycle;Signal;HPM_P1;HPM_P2
2021/03/17 00:01:32;;;;;;;4.43;2.40;;;2.00;99.90;;;;;;4186793;28;20270;-65
2021/03/17 00:03:33;;;;;;;3.70;2.20;;;2.00;99.90;;;;;;4188747;28;20277;-64
2021/03/17 00:05:37;;;;;;;3.37;2.30;;;1.90;99.90;;;;;;4188179;28;20265;-63
2021/03/17 00:07:38;;;;;;;3.33;1.83;;;2.00;99.90;;;;;;4188398;28;21221;-64
2021/03/17 00:09:40;;;;;;;2.90;2.23;;;2.00;99.90;;;;;;4187824;28;20261;-64
2021/03/17 00:11:41;;;;;;;3.37;2.43;;;2.00;99.90;;;;;;4187856;28;20301;-65
2021/03/17 00:13:43;;;;;;;3.00;2.03;;;1.90;99.90;;;;;;4188987;28;20285;-63
2021/03/17 00:15:44;;;;;;;3.00;2.47;;;2.00;99.90;;;;;;4188045;28;20258;-66
2021/03/17 00:17:46;;;;;;;3.83;2.53;;;1.90;99.90;;;;;;4188881;28;20265;-64
2021/03/17 00:19:47;;;;;;;2.23;2.00;;;2.00;99.90;;;;;;4186287;28;20339;-64
2021/03/17 00:21:48;;;;;;;2.27;1.80;;;2.00;99.90;;;;;;4186646;28;20281;-64
2021/03/17 00:23:49;;;;;;;2.37;1.83;;;2.00;99.90;;;;;;4187843;28;20314;-68
2021/03/17 00:25:50;;;;;;;2.93;1.90;;;2.00;99.90;;;;;;4188388;28;20265;-64
2021/03/17 00:27:51;;;;;;;2.43;1.80;;;1.90;99.90;;;;;;4188106;28;20253;-65
2021/03/17 00:29:52;;;;;;;2.53;2.10;;;1.90;99.90;;;;;;4188850;28;20253;-62
2021/03/17 00:31:53;;;;;;;2.57;2.07;;;2.00;99.90;;;;;;4187375;28;20859;-64
2021/03/17 00:33:55;;;;;;;4.27;2.37;;;1.90;99.90;;;;;;4187886;28;20319;-67
2021/03/17 00:35:56;;;;;;;2.90;2.10;;;2.00;99.90;;;;;;4187547;28;20335;-67
2021/03/17 00:37:57;;;;;;;2.93;2.03;;;2.00;99.90;;;;;;4187565;28;20265;-65
2021/03/17 00:39:58;;;;;;;3.80;1.80;;;2.00;99.90;;;;;;4190602;28;20258;-67
2021/03/17 00:41:59;;;;;;;2.80;1.90;;;1.90;99.90;;;;;;4191117;28;20311;-64
2021/03/17 00:44:02;;;;;;;3.07;2.40;;;2.00;99.90;;;;;;4191570;28;20318;-65
2021/03/17 00:46:03;;;;;;;2.13;1.93;;;1.90;99.90;;;;;;4190980;28;20719;-63
2021/03/17 00:48:05;;;;;;;4.37;2.60;;;1.90;99.90;;;;;;4191135;28;20342;-64
2021/03/17 00:50:08;;;;;;;2.90;1.90;;;1.90;99.90;;;;;;4190168;28;20984;-64
2021/03/17 00:52:09;;;;;;;3.10;2.20;;;1.90;99.90;;;;;;4191396;28;20772;-65
2021/03/17 00:54:11;;;;;;;3.17;1.97;;;2.00;99.90;;;;;;4190710;28;20266;-65
2021/03/17 00:56:12;;;;;;;3.97;2.53;;;1.90;99.90;;;;;;4191224;28;20761;-68
2021/03/17 00:58:13;;;;;;;4.27;2.47;;;1.90;99.90;;;;;;4190324;28;20740;-64
2021/03/17 01:00:16;;;;;;;3.90;2.20;;;1.90;99.90;;;;;;4191632;28;20354;-64
2021/03/17 01:02:17;;;;;;;3.60;2.63;;;1.90;99.90;;;;;;4190264;28;20277;-64
2021/03/17 01:04:18;;;;;;;4.13;2.50;;;1.90;99.90;;;;;;4190932;28;20692;-65
2021/03/17 01:06:19;;;;;;;4.67;2.50;;;1.90;99.90;;;;;;4190243;28;20261;-67
2021/03/17 01:08:21;;;;;;;3.87;2.53;;;1.90;99.90;;;;;;4190610;28;20327;-64
2021/03/17 01:10:35;;;;;;;4.57;2.53;;;1.90;99.90;;;;;;4190298;28;20671;-63
2021/03/17 01:12:36;;;;;;;3.43;2.60;;;1.90;99.90;;;;;;4190947;28;20335;-64
2021/03/17 01:14:38;;;;;;;2.97;2.33;;;1.90;99.90;;;;;;4191366;28;20331;-64
2021/03/17 01:16:40;;;;;;;3.63;2.33;;;1.90;99.90;;;;;;4191047;28;20282;-64
2021/03/17 01:18:41;;;;;;;3.77;2.67;;;1.90;99.90;;;;;;4190959;28;20334;-64
2021/03/17 01:20:42;;;;;;;3.93;2.67;;;1.90;99.90;;;;;;4190251;28;20323;-68
2021/03/17 01:22:44;;;;;;;7.10;2.50;;;1.90;99.90;;;;;;4190941;28;20335;-64
2021/03/17 01:24:45;;;;;;;6.00;3.23;;;1.90;99.90;;;;;;4190189;28;20262;-67
2021/03/17 01:26:46;;;;;;;4.13;2.80;;;1.90;99.90;;;;;;4190380;28;20273;-63
2021/03/17 01:28:47;;;;;;;5.67;3.00;;;1.90;99.90;;;;;;4189677;28;20334;-64
2021/03/17 01:30:53;;;;;;;3.10;2.40;;;1.80;99.90;;;;;;4190867;28;20289;-66
2021/03/17 01:32:54;;;;;;;3.33;2.77;;;1.90;99.90;;;;;;4189848;28;20278;-63
2021/03/17 01:34:55;;;;;;;3.90;2.60;;;1.90;99.90;;;;;;4190611;28;20319;-64
2021/03/17 01:36:57;;;;;;;6.07;2.97;;;1.90;99.90;;;;;;4190367;28;20319;-64
2021/03/17 01:38:58;;;;;;;4.80;2.90;;;1.90;99.90;;;;;;4190217;28;20277;-64
2021/03/17 01:40:59;;;;;;;3.80;2.80;;;1.80;99.90;;;;;;4189939;28;20269;-64
2021/03/17 01:43:00;;;;;;;2.70;2.03;;;1.90;99.90;;;;;;4190813;28;20674;-65
2021/03/17 01:45:11;;;;;;;3.23;2.60;;;1.80;99.90;;;;;;4189360;28;20347;-64
2021/03/17 01:47:12;;;;;;;3.78;2.80;;;1.90;99.90;;;;;;4189734;28;20257;-68
2021/03/17 01:49:13;;;;;;;3.23;2.30;;;1.90;99.90;;;;;;4190132;28;20086;-63
2021/03/17 01:51:14;;;;;;;4.67;2.97;;;1.90;99.90;;;;;;4188866;28;20289;-65
2021/03/17 01:53:36;;;;;;;3.97;2.63;;;1.90;99.90;;;;;;4190532;28;20266;-64
2021/03/17 01:55:39;;;;;;;4.37;2.33;;;1.90;99.90;;;;;;4187945;28;20289;-64
2021/03/17 01:57:40;;;;;;;4.37;2.77;;;1.90;99.90;;;;;;4188374;28;20266;-64
2021/03/17 01:59:41;;;;;;;5.33;2.97;;;1.90;99.90;;;;;;4189637;28;20621;-64
2021/03/17 02:01:42;;;;;;;4.47;2.80;;;1.90;99.90;;;;;;4190147;28;20265;-65
2021/03/17 02:03:43;;;;;;;5.27;2.73;;;1.80;99.90;;;;;;4188848;28;20751;-64
2021/03/17 02:05:47;;;;;;;4.20;2.93;;;1.90;99.90;;;;;;4189905;28;20330;-65
2021/03/17 02:07:49;;;;;;;4.20;2.63;;;1.80;99.90;;;;;;4189379;28;20746;-64
2021/03/17 02:09:51;;;;;;;4.23;3.00;;;1.90;99.90;;;;;;4189737;28;20266;-64
2021/03/17 02:12:08;;;;;;;5.13;2.73;;;1.90;99.90;;;;;;4188878;28;20285;-63
2021/03/17 02:14:28;;;;;;;5.00;3.13;;;1.90;99.90;;;;;;4190603;28;20741;-66
2021/03/17 02:16:35;;;;;;;5.67;3.00;;;1.90;99.90;;;;;;4187459;28;20793;-66
2021/03/17 02:19:04;;;;;;;6.13;3.60;;;1.90;99.90;;;;;;4187838;28;20279;-64
2021/03/17 02:21:12;;;;;;;5.23;2.97;;;1.90;99.90;;;;;;4189368;28;20265;-64
2021/03/17 02:23:32;;;;;;;4.97;3.00;;;1.80;99.90;;;;;;4189193;28;20271;-66
2021/03/17 02:26:14;;;;;;;6.17;3.33;;;1.90;99.90;;;;;;4188847;28;20269;-64
2021/03/17 02:28:29;;;;;;;4.07;2.87;;;1.80;99.90;;;;;;4188764;28;20281;-64
2021/03/17 02:31:11;;;;;;;5.43;3.00;;;1.80;99.90;;;;;;4189350;28;20280;-64
2021/03/17 02:33:45;;;;;;;5.27;3.27;;;1.80;99.90;;;;;;4188964;28;20681;-63
2021/03/17 02:35:53;;;;;;;4.87;3.03;;;1.80;99.90;;;;;;4189862;28;20323;-64
2021/03/17 02:37:55;;;;;;;4.57;2.80;;;1.80;99.90;;;;;;4188707;28;20759;-63
2021/03/17 02:40:02;;;;;;;6.00;2.90;;;1.80;99.90;;;;;;4189503;28;20273;-64
2021/03/17 02:42:07;;;;;;;3.97;2.77;;;1.80;99.90;;;;;;4188641;28;20777;-64
2021/03/17 02:44:13;;;;;;;4.07;3.03;;;1.80;99.90;;;;;;4190369;28;20269;-63
2021/03/17 02:46:16;;;;;;;4.73;3.23;;;1.80;99.90;;;;;;4188442;28;20311;-64
2021/03/17 02:48:44;;;;;;;4.30;3.00;;;1.80;99.90;;;;;;4189469;28;20273;-63
2021/03/17 02:50:48;;;;;;;5.60;3.47;;;1.80;99.90;;;;;;4188936;28;20323;-63
2021/03/17 02:52:54;;;;;;;5.40;3.40;;;1.80;99.90;;;;;;4189077;28;20289;-66
2021/03/17 02:54:56;;;;;;;4.47;3.47;;;1.70;99.90;;;;;;4188249;28;20842;-63
2021/03/17 02:57:03;;;;;;;5.30;3.63;;;1.70;99.90;;;;;;4188887;28;20378;-64
2021/03/17 02:59:05;;;;;;;7.00;4.40;;;1.80;99.90;;;;;;4188355;28;20327;-63
2021/03/17 03:01:08;;;;;;;6.20;4.07;;;1.70;99.90;;;;;;4189019;28;20273;-64
2021/03/17 03:03:10;;;;;;;5.70;3.73;;;1.70;99.90;;;;;;4188373;28;20337;-63
2021/03/17 03:05:16;;;;;;;5.93;3.97;;;1.70;99.90;;;;;;4189055;28;20323;-61
2021/03/17 03:07:17;;;;;;;9.10;3.97;;;1.70;99.90;;;;;;4188638;28;20752;-65
2021/03/17 03:09:21;;;;;;;7.13;4.27;;;1.70;99.90;;;;;;4189135;28;20696;-65
2021/03/17 03:11:22;;;;;;;6.53;4.07;;;1.70;99.90;;;;;;4189019;28;20285;-64
2021/03/17 03:13:25;;;;;;;6.53;4.13;;;1.70;99.90;;;;;;4189351;28;20327;-64
2021/03/17 03:15:28;;;;;;;7.87;4.80;;;1.70;99.90;;;;;;4188581;28;20273;-64
2021/03/17 03:17:29;;;;;;;6.40;4.63;;;1.70;99.90;;;;;;4188814;28;20265;-65
2021/03/17 03:19:48;;;;;;;7.43;4.70;;;1.70;99.90;;;;;;4189419;28;20265;-63
2021/03/17 03:21:52;;;;;;;7.33;4.50;;;1.70;99.90;;;;;;4188732;28;20334;-63
2021/03/17 03:23:55;;;;;;;8.37;4.93;;;1.70;99.90;;;;;;4189254;28;20655;-65
2021/03/17 03:25:57;;;;;;;8.50;5.00;;;1.70;99.90;;;;;;4188296;28;20288;-65
2021/03/17 03:28:10;;;;;;;8.90;4.77;;;1.70;99.90;;;;;;4189205;28;20890;-64
2021/03/17 03:30:18;;;;;;;9.63;5.40;;;1.70;99.90;;;;;;4188572;28;20334;-66
2021/03/17 03:32:19;;;;;;;10.23;5.47;;;1.70;99.90;;;;;;4188794;28;20285;-64
2021/03/17 03:34:20;;;;;;;8.07;4.93;;;1.70;99.90;;;;;;4188441;28;20350;-65
2021/03/17 03:36:24;;;;;;;7.10;4.73;;;1.70;99.90;;;;;;4189446;28;20717;-65
2021/03/17 03:38:25;;;;;;;8.13;5.30;;;1.70;99.90;;;;;;4187942;28;20269;-65
2021/03/17 03:40:27;;;;;;;8.33;5.17;;;1.70;99.90;;;;;;4189033;28;20331;-65
2021/03/17 03:42:28;;;;;;;8.57;5.07;;;1.70;99.90;;;;;;4186086;28;20296;-64
2021/03/17 03:44:30;;;;;;;9.27;5.10;;;1.70;99.90;;;;;;4189304;28;20734;-64
2021/03/17 03:46:32;;;;;;;10.00;5.50;;;1.70;99.90;;;;;;4188301;28;20311;-64
2021/03/17 03:48:36;;;;;;;9.47;5.40;;;1.70;99.90;;;;;;4187925;28;20273;-64
2021/03/17 03:50:43;;;;;;;7.43;4.60;;;1.70;99.90;;;;;;4188308;28;20420;-64
2021/03/17 03:53:05;;;;;;;10.33;5.40;;;1.70;99.90;;;;;;4186956;28;20297;-64
2021/03/17 03:55:13;;;;;;;9.00;5.00;;;1.70;99.90;;;;;;4188566;28;20335;-64
2021/03/17 03:57:40;;;;;;;9.93;5.13;;;1.70;99.90;;;;;;4188677;28;20841;-63
2021/03/17 03:59:45;;;;;;;9.63;5.17;;;1.70;99.90;;;;;;4186829;28;20293;-63
2021/03/17 04:01:48;;;;;;;7.77;4.67;;;1.60;99.90;;;;;;4188917;28;20273;-64
2021/03/17 04:03:55;;;;;;;10.50;5.47;;;1.70;99.90;;;;;;4188336;28;20269;-64
2021/03/17 04:05:57;;;;;;;11.87;6.10;;;1.60;99.90;;;;;;4189014;28;20754;-65
2021/03/17 04:08:04;;;;;;;8.47;5.07;;;1.60;99.90;;;;;;4188218;28;20267;-65
2021/03/17 04:10:08;;;;;;;8.07;5.07;;;1.50;99.90;;;;;;4188522;28;21177;-66
2021/03/17 04:12:10;;;;;;;9.80;5.43;;;1.60;99.90;;;;;;4187646;28;20293;-65
2021/03/17 04:14:12;;;;;;;8.90;5.27;;;1.70;99.90;;;;;;4190305;28;20768;-65
2021/03/17 04:16:15;;;;;;;7.83;4.87;;;1.70;99.90;;;;;;4191687;28;20418;-64
2021/03/17 04:18:19;;;;;;;6.83;4.30;;;1.70;99.90;;;;;;4191271;28;20285;-63
2021/03/17 04:20:27;;;;;;;6.33;4.07;;;1.70;99.90;;;;;;4191344;28;20277;-65
2021/03/17 04:22:30;;;;;;;6.83;4.17;;;1.70;99.90;;;;;;4190784;28;20273;-65
2021/03/17 04:24:32;;;;;;;6.20;4.40;;;1.70;99.90;;;;;;4191151;28;20906;-64
2021/03/17 04:26:35;;;;;;;10.77;5.10;;;1.70;99.90;;;;;;4190962;28;20269;-65
2021/03/17 04:28:39;;;;;;;8.60;5.47;;;1.70;99.90;;;;;;4191180;28;21035;-63
2021/03/17 04:30:41;;;;;;;7.17;4.57;;;1.70;99.90;;;;;;4190174;28;20289;-64
2021/03/17 04:32:45;;;;;;;7.87;4.83;;;1.70;99.90;;;;;;4190008;28;20301;-67
2021/03/17 04:34:49;;;;;;;7.53;4.63;;;1.60;99.90;;;;;;4190838;28;20277;-64
2021/03/17 04:36:52;;;;;;;8.77;5.10;;;1.70;99.90;;;;;;4191311;28;21083;-64
2021/03/17 04:38:54;;;;;;;8.00;4.30;;;1.70;99.90;;;;;;4190077;28;20759;-65
2021/03/17 04:40:56;;;;;;;8.47;5.23;;;1.70;99.90;;;;;;4191499;28;20590;-69
2021/03/17 04:42:58;;;;;;;6.53;4.30;;;1.70;99.90;;;;;;4190587;28;20591;-67
2021/03/17 04:44:59;;;;;;;6.80;4.13;;;1.70;99.90;;;;;;4191894;28;20277;-63
2021/03/17 04:47:01;;;;;;;7.87;4.03;;;1.70;99.90;;;;;;4190677;28;20269;-63
2021/03/17 04:49:03;;;;;;;12.10;4.40;;;1.60;99.90;;;;;;4189438;28;20277;-65
2021/03/17 04:51:07;;;;;;;7.30;4.43;;;1.60;99.90;;;;;;4190830;28;20719;-64
2021/03/17 04:53:10;;;;;;;7.50;4.57;;;1.60;99.90;;;;;;4191160;28;20293;-64
2021/03/17 04:55:15;;;;;;;7.07;4.30;;;1.60;99.90;;;;;;4190516;28;20254;-65
2021/03/17 04:57:26;;;;;;;6.77;3.50;;;1.60;99.90;;;;;;4188706;28;20343;-63
2021/03/17 04:59:28;;;;;;;7.30;4.43;;;1.60;99.90;;;;;;4190617;28;20307;-63
2021/03/17 05:01:33;;;;;;;6.23;3.33;;;1.60;99.90;;;;;;4190087;28;20741;-63
2021/03/17 05:03:37;;;;;;;7.00;3.70;;;1.60;99.90;;;;;;4189849;28;20695;-67
2021/03/17 05:05:40;;;;;;;7.63;4.37;;;1.60;99.90;;;;;;4190632;28;20312;-63
2021/03/17 05:07:42;;;;;;;8.60;4.33;;;1.60;99.90;;;;;;4190656;28;20269;-64
2021/03/17 05:09:46;;;;;;;7.23;4.37;;;1.60;99.90;;;;;;4190204;28;20734;-63
2021/03/17 05:11:47;;;;;;;8.23;4.50;;;1.60;99.90;;;;;;4190408;28;20337;-67
2021/03/17 05:13:49;;;;;;;7.50;4.50;;;1.60;99.90;;;;;;4190308;28;20270;-64
2021/03/17 05:15:51;;;;;;;7.07;3.80;;;1.60;99.90;;;;;;4190222;28;20621;-65
2021/03/17 05:17:52;;;;;;;6.10;3.80;;;1.60;99.90;;;;;;4189953;28;20675;-63
2021/03/17 05:19:54;;;;;;;6.00;3.77;;;1.60;99.90;;;;;;4190573;28;20338;-66
2021/03/17 05:21:56;;;;;;;4.87;3.30;;;1.60;99.90;;;;;;4189855;28;20265;-63
2021/03/17 05:23:58;;;;;;;5.93;3.23;;;1.60;99.90;;;;;;4190472;28;20311;-64
2021/03/17 05:26:00;;;;;;;4.83;3.33;;;1.60;99.90;;;;;;4188534;28;20878;-62
2021/03/17 05:28:04;;;;;;;6.27;3.37;;;1.60;99.90;;;;;;4188739;28;20273;-64
2021/03/17 05:30:10;;;;;;;5.57;3.50;;;1.70;99.90;;;;;;4189201;28;20281;-61
2021/03/17 05:32:13;;;;;;;6.73;4.17;;;1.70;99.90;;;;;;4190022;28;20281;-62
2021/03/17 05:34:14;;;;;;;5.83;3.53;;;1.70;99.90;;;;;;4187912;28;20344;-64
2021/03/17 05:36:16;;;;;;;4.10;3.03;;;1.70;99.90;;;;;;4187699;28;20335;-63
2021/03/17 05:38:17;;;;;;;9.77;3.43;;;1.70;99.90;;;;;;4189697;28;20324;-64
2021/03/17 05:40:18;;;;;;;6.40;2.67;;;1.70;99.90;;;;;;4189250;28;20888;-63
2021/03/17 05:42:21;;;;;;;6.03;2.93;;;1.70;99.90;;;;;;4189634;28;20285;-70
2021/03/17 05:44:22;;;;;;;6.33;3.67;;;1.70;99.90;;;;;;4188954;28;20328;-63
2021/03/17 05:46:24;;;;;;;5.73;3.03;;;1.70;99.90;;;;;;4189835;28;20266;-63
2021/03/17 05:48:27;;;;;;;4.10;2.80;;;1.70;99.90;;;;;;4189486;28;20640;-62
2021/03/17 05:50:28;;;;;;;5.83;3.20;;;1.70;99.90;;;;;;4189648;28;20253;-62
2021/03/17 05:52:31;;;;;;;7.77;3.10;;;1.70;99.90;;;;;;4188607;28;20767;-65
2021/03/17 05:54:32;;;;;;;7.77;5.40;;;1.60;99.90;;;;;;4189899;28;20261;-63
2021/03/17 05:56:36;;;;;;;12.07;5.93;;;1.60;99.90;;;;;;4188644;28;20787;-62
2021/03/17 05:58:39;;;;;;;8.23;3.90;;;1.60;99.90;;;;;;4190263;28;21100;-62
2021/03/17 06:00:40;;;;;;;11.30;5.43;;;1.70;99.90;;;;;;4188809;28;20791;-62
2021/03/17 06:02:41;;;;;;;10.63;5.73;;;1.60;99.90;;;;;;4189514;28;20273;-60
2021/03/17 06:04:43;;;;;;;55.57;23.20;;;1.70;99.90;;;;;;4189448;28;20261;-62
2021/03/17 06:06:45;;;;;;;32.90;14.13;;;1.70;99.90;;;;;;4189665;28;20327;-62
2021/03/17 06:08:47;;;;;;;33.20;14.30;;;1.70;99.90;;;;;;4189277;28;20261;-70
2021/03/17 06:10:49;;;;;;;39.63;17.23;;;1.60;99.90;;;;;;4188936;28;20367;-63
2021/03/17 06:12:56;;;;;;;19.53;9.93;;;1.60;99.90;;;;;;4189727;28;20293;-62
2021/03/17 06:14:57;;;;;;;32.93;13.70;;;1.60;99.90;;;;;;4189153;28;20338;-64
2021/03/17 06:17:03;;;;;;;11.73;7.03;;;1.70;99.90;;;;;;4189640;28;20512;-61
2021/03/17 06:19:05;;;;;;;5.70;4.10;;;1.70;99.90;;;;;;4189002;28;20265;-62
2021/03/17 06:21:06;;;;;;;5.27;3.43;;;1.70;99.90;;;;;;4189159;28;20327;-62
2021/03/17 06:23:07;;;;;;;7.47;3.70;;;1.70;99.90;;;;;;4188721;28;20273;-63
2021/03/17 06:25:09;;;;;;;5.33;3.37;;;1.70;99.90;;;;;;4189332;28;20304;-63
2021/03/17 06:27:12;;;;;;;4.97;3.70;;;1.70;99.90;;;;;;4187764;28;20285;-63
2021/03/17 06:29:17;;;;;;;4.73;2.97;;;1.70;99.90;;;;;;4189733;28;20270;-65
2021/03/17 06:31:21;;;;;;;6.37;3.87;;;1.70;99.90;;;;;;4188530;28;20327;-69
2021/03/17 06:33:22;;;;;;;7.37;4.00;;;1.70;99.90;;;;;;4189271;28;20301;-64
2021/03/17 06:35:25;;;;;;;10.03;5.73;;;1.70;99.90;;;;;;4188620;28;20312;-63
2021/03/17 06:37:37;;;;;;;10.57;5.77;;;1.70;99.90;;;;;;4189117;28;20261;-64
2021/03/17 06:39:38;;;;;;;5.17;3.90;;;1.70;99.90;;;;;;4188310;28;20262;-63
2021/03/17 06:41:53;;;;;;;6.37;4.07;;;1.70;99.90;;;;;;4188748;28;20339;-68
2021/03/17 06:44:02;;;;;;;5.00;3.23;;;1.70;99.90;;;;;;4188576;28;20685;-62
2021/03/17 06:46:05;;;;;;;7.37;3.73;;;1.70;99.90;;;;;;4188783;28;20316;-68
2021/03/17 06:48:25;;;;;;;5.87;3.63;;;1.70;99.90;;;;;;4188406;28;20262;-63
2021/03/17 06:50:29;;;;;;;7.73;4.70;;;1.70;99.90;;;;;;4188767;28;20315;-63
2021/03/17 06:52:35;;;;;;;6.30;3.83;;;1.80;99.90;;;;;;4188003;28;20286;-63
2021/03/17 06:54:36;;;;;;;9.70;5.00;;;1.80;99.90;;;;;;4188950;28;21276;-63
2021/03/17 06:56:38;;;;;;;4.80;3.20;;;1.80;99.90;;;;;;4187476;28;20806;-63
2021/03/17 06:58:44;;;;;;;7.90;4.73;;;1.80;99.90;;;;;;4187950;28;20346;-62
2021/03/17 07:00:45;;;;;;;6.47;3.60;;;1.80;99.90;;;;;;4188187;28;20804;-63
2021/03/17 07:03:02;;;;;;;9.23;4.93;;;1.80;99.90;;;;;;4186456;28;20785;-65
2021/03/17 07:05:04;;;;;;;30.33;13.87;;;1.80;99.90;;;;;;4188387;28;20273;-64
2021/03/17 07:07:05;;;;;;;15.27;7.07;;;1.80;99.90;;;;;;4186488;28;20903;-64
2021/03/17 07:09:13;;;;;;;16.80;7.83;;;1.90;99.90;;;;;;4188724;28;20269;-63
2021/03/17 07:11:29;;;;;;;9.37;5.00;;;1.90;99.90;;;;;;4188308;28;20324;-62
2021/03/17 07:13:31;;;;;;;17.67;8.60;;;1.90;99.90;;;;;;4189083;28;20688;-64
2021/03/17 07:15:33;;;;;;;17.30;8.17;;;1.90;99.90;;;;;;4188292;28;20266;-63
2021/03/17 07:17:34;;;;;;;8.23;4.40;;;1.90;99.90;;;;;;4188289;28;20665;-63
2021/03/17 07:19:38;;;;;;;13.33;5.40;;;1.90;99.90;;;;;;4187863;28;20346;-65
2021/03/17 07:21:40;;;;;;;4.73;3.00;;;1.90;99.90;;;;;;4188381;28;20278;-68
2021/03/17 07:23:43;;;;;;;5.90;3.67;;;1.90;99.90;;;;;;4187621;28;20656;-68
2021/03/17 07:26:04;;;;;;;7.97;4.33;;;1.90;99.90;;;;;;4188523;28;20367;-64
2021/03/17 07:28:05;;;;;;;6.60;3.87;;;1.80;99.90;;;;;;4187823;28;20757;-63
2021/03/17 07:30:09;;;;;;;10.53;6.07;;;1.90;99.90;;;;;;4188346;28;20730;-63
2021/03/17 07:32:11;;;;;;;13.27;6.83;;;1.90;99.90;;;;;;4187152;28;20254;-63
2021/03/17 07:34:24;;;;;;;9.13;4.53;;;1.80;99.90;;;;;;4188078;28;20261;-64
2021/03/17 07:36:44;;;;;;;5.03;3.20;;;1.90;99.90;;;;;;4187595;28;20254;-63
2021/03/17 07:38:45;;;;;;;6.03;3.80;;;1.90;99.90;;;;;;4188951;28;20261;-63
2021/03/17 07:40:47;;;;;;;12.10;6.23;;;1.90;99.90;;;;;;4187288;28;20284;-63
2021/03/17 07:42:48;;;;;;;7.17;4.50;;;1.90;99.90;;;;;;4188721;28;20745;-63
2021/03/17 07:44:51;;;;;;;5.77;3.90;;;1.90;99.90;;;;;;4188177;28;20311;-66
2021/03/17 07:46:58;;;;;;;6.40;3.73;;;1.90;99.90;;;;;;4188669;28;20335;-64
2021/03/17 07:49:00;;;;;;;6.13;3.70;;;1.90;99.90;;;;;;4188242;28;20266;-66
2021/03/17 07:51:01;;;;;;;6.27;3.60;;;1.90;99.90;;;;;;4191866;28;20269;-64
2021/03/17 07:53:16;;;;;;;6.63;3.27;;;2.00;99.90;;;;;;4190256;28;20367;-62
2021/03/17 07:55:19;;;;;;;12.47;5.90;;;2.00;99.90;;;;;;4190874;28;20286;-68
2021/03/17 07:57:26;;;;;;;5.17;2.77;;;2.00;99.90;;;;;;4190463;28;20293;-62
2021/03/17 07:59:28;;;;;;;5.30;3.37;;;2.10;99.90;;;;;;4189841;28;20277;-63
2021/03/17 08:01:30;;;;;;;6.27;3.30;;;2.00;99.90;;;;;;4191146;28;20347;-62
2021/03/17 08:03:31;;;;;;;6.50;4.13;;;2.10;99.90;;;;;;4190814;28;20832;-65
2021/03/17 08:05:35;;;;;;;3.77;2.60;;;2.10;99.90;;;;;;4191412;28;20265;-64
2021/03/17 08:07:37;;;;;;;6.23;2.33;;;2.10;99.90;;;;;;4191335;28;20318;-66
2021/03/17 08:09:39;;;;;;;3.83;2.37;;;2.10;99.90;;;;;;4191634;28;20805;-63
2021/03/17 08:11:41;;;;;;;7.17;4.37;;;2.20;99.90;;;;;;4190672;28;20253;-63
2021/03/17 08:13:44;;;;;;;4.27;2.47;;;2.10;99.90;;;;;;4191831;28;20289;-63
2021/03/17 08:15:47;;;;;;;5.03;3.07;;;2.20;99.90;;;;;;4191002;28;20696;-63
2021/03/17 08:17:48;;;;;;;3.47;2.50;;;2.20;99.90;;;;;;4191717;28;20277;-63
2021/03/17 08:20:13;;;;;;;4.70;3.17;;;2.10;99.90;;;;;;4190361;28;20265;-63
2021/03/17 08:22:14;;;;;;;7.57;3.23;;;2.10;99.90;;;;;;4190512;28;20273;-67
2021/03/17 08:24:38;;;;;;;6.57;3.73;;;2.10;99.90;;;;;;4190771;28;20581;-63
2021/03/17 08:26:45;;;;;;;7.40;3.27;;;2.10;99.90;;;;;;4178851;28;20289;-62
2021/03/17 08:28:48;;;;;;;5.07;3.50;;;2.10;99.90;;;;;;4188254;28;20274;-69
2021/03/17 08:30:51;;;;;;;7.17;3.37;;;2.00;99.90;;;;;;4191041;28;20292;-66
2021/03/17 08:32:54;;;;;;;5.23;3.60;;;2.00;99.90;;;;;;4189978;28;20338;-63
2021/03/17 08:34:57;;;;;;;5.13;2.87;;;2.10;99.90;;;;;;4191419;28;20307;-63
2021/03/17 08:37:01;;;;;;;6.00;3.57;;;2.00;99.90;;;;;;4189920;28;20284;-63
2021/03/17 08:39:02;;;;;;;6.57;4.03;;;2.10;99.90;;;;;;4191510;28;20713;-63
2021/03/17 08:41:03;;;;;;;3.73;2.93;;;2.10;99.90;;;;;;4190229;28;20335;-68
2021/03/17 08:43:29;;;;;;;5.23;3.13;;;2.10;99.90;;;;;;4190844;28;20350;-63
2021/03/17 08:45:42;;;;;;;7.93;4.33;;;2.10;99.90;;;;;;4190947;28;20720;-63
2021/03/17 08:47:46;;;;;;;5.30;3.30;;;2.10;99.90;;;;;;4191741;28;20591;-65
2021/03/17 08:49:50;;;;;;;5.07;3.07;;;2.10;99.90;;;;;;4190051;28;20955;-70
2021/03/17 08:51:51;;;;;;;7.57;4.03;;;2.10;99.90;;;;;;4191243;28;20261;-64
2021/03/17 08:53:52;;;;;;;5.47;3.27;;;2.10;99.90;;;;;;4190295;28;20618;-64
2021/03/17 08:55:53;;;;;;;8.43;5.17;;;2.10;99.90;;;;;;4190448;28;20269;-67
2021/03/17 08:58:06;;;;;;;6.53;4.00;;;2.10;99.90;;;;;;4190231;28;20269;-68
2021/03/17 09:00:08;;;;;;;7.27;4.37;;;2.20;99.90;;;;;;4190873;28;20258;-63
2021/03/17 09:02:25;;;;;;;5.67;3.70;;;2.20;99.90;;;;;;4190490;28;20730;-63
2021/03/17 09:04:48;;;;;;;9.57;5.07;;;2.20;99.90;;;;;;4190289;28;20322;-63
2021/03/17 09:07:07;;;;;;;17.03;8.40;;;2.20;99.90;;;;;;4190162;28;20378;-63
2021/03/17 09:09:17;;;;;;;13.40;7.93;;;2.20;99.90;;;;;;4189038;28;20350;-64
2021/03/17 09:11:30;;;;;;;15.77;9.50;;;2.20;99.90;;;;;;4189763;28;20308;-63
2021/03/17 09:13:51;;;;;;;15.77;8.97;;;2.20;99.90;;;;;;4190949;28;20162;-63
2021/03/17 09:15:52;;;;;;;11.40;7.10;;;2.20;99.90;;;;;;4190159;28;20656;-60
2021/03/17 09:17:56;;;;;;;17.47;9.57;;;2.20;99.90;;;;;;4190639;28;20253;-63
2021/03/17 09:20:01;;;;;;;11.13;6.67;;;2.20;99.90;;;;;;4189536;28;20346;-64
2021/03/17 09:22:22;;;;;;;14.10;9.63;;;2.20;99.90;;;;;;4190781;28;20281;-65
2021/03/17 09:24:34;;;;;;;7.50;5.53;;;2.20;99.90;;;;;;4189787;28;20791;-61
2021/03/17 09:26:35;;;;;;;8.03;4.90;;;2.30;99.90;;;;;;4190723;28;20315;-65
2021/03/17 09:28:38;;;;;;;6.10;3.93;;;2.30;99.90;;;;;;4189166;28;20277;-62
2021/03/17 09:30:49;;;;;;;6.53;4.13;;;2.30;99.90;;;;;;4188933;28;20339;-64
2021/03/17 09:33:03;;;;;;;6.27;3.60;;;2.30;99.90;;;;;;4189379;28;20435;-64
2021/03/17 09:35:06;;;;;;;5.57;3.63;;;2.30;99.90;;;;;;4190411;28;20854;-65
2021/03/17 09:37:12;;;;;;;9.23;3.73;;;2.30;99.90;;;;;;4189456;28;20331;-63
2021/03/17 09:39:16;;;;;;;7.27;3.90;;;2.30;99.90;;;;;;4190267;28;20249;-61
2021/03/17 09:41:19;;;;;;;8.27;3.73;;;2.30;99.90;;;;;;4189253;28;20266;-63
2021/03/17 09:43:31;;;;;;;6.33;4.00;;;2.30;99.90;;;;;;4190128;28;20315;-65
2021/03/17 09:45:32;;;;;;;6.00;4.30;;;2.40;99.90;;;;;;4189916;28;20278;-62
2021/03/17 09:47:33;;;;;;;7.77;5.70;;;2.30;99.90;;;;;;4187990;28;20781;-70
2021/03/17 09:49:35;;;;;;;8.03;4.27;;;2.40;99.90;;;;;;4189794;28;20762;-62
2021/03/17 09:51:40;;;;;;;9.77;6.63;;;2.30;99.90;;;;;;4189029;28;20575;-70
2021/03/17 09:53:42;;;;;;;5.57;3.80;;;2.40;99.90;;;;;;4188733;28;20623;-65
2021/03/17 09:55:43;;;;;;;5.33;4.57;;;2.30;99.90;;;;;;4188687;28;20734;-65
2021/03/17 09:57:55;;;;;;;15.10;6.67;;;2.40;99.90;;;;;;4189173;28;20269;-63
2021/03/17 09:59:57;;;;;;;7.87;5.10;;;2.40;99.90;;;;;;4187418;28;20293;-63
2021/03/17 10:02:04;;;;;;;13.97;7.60;;;2.40;99.90;;;;;;4189710;28;20281;-64
2021/03/17 10:04:05;;;;;;;9.23;5.33;;;2.50;99.90;;;;;;4186396;28;20292;-62
2021/03/17 10:06:06;;;;;;;7.47;5.80;;;2.50;99.90;;;;;;4189741;28;20270;-62
2021/03/17 10:08:07;;;;;;;10.87;5.17;;;2.50;99.90;;;;;;4188284;28;20293;-62
2021/03/17 10:10:09;;;;;;;5.80;4.27;;;2.60;99.90;;;;;;4189388;28;20285;-61
2021/03/17 10:12:15;;;;;;;9.23;4.63;;;2.50;99.90;;;;;;4187636;28;20672;-63
2021/03/17 10:14:17;;;;;;;6.90;3.80;;;2.60;99.90;;;;;;4189501;28;20289;-63
2021/03/17 10:16:19;;;;;;;6.67;4.40;;;2.60;99.90;;;;;;4188849;28;20327;-63
2021/03/17 10:18:20;;;;;;;6.10;4.17;;;2.50;99.90;;;;;;4188984;28;20265;-66
2021/03/17 10:20:23;;;;;;;5.00;2.87;;;2.60;99.90;;;;;;4188514;28;20966;-62
2021/03/17 10:22:27;;;;;;;6.60;4.30;;;2.60;99.90;;;;;;4189484;28;20319;-62
2021/03/17 10:24:32;;;;;;;6.83;4.30;;;2.60;99.90;;;;;;4188472;28;20265;-62
2021/03/17 10:26:36;;;;;;;6.37;3.37;;;2.70;99.90;;;;;;4188545;28;20767;-63
2021/03/17 10:28:37;;;;;;;8.07;4.10;;;2.60;99.90;;;;;;4188629;28;20269;-61
2021/03/17 10:30:45;;;;;;;5.83;3.83;;;2.60;99.90;;;;;;4188780;28;20269;-64
2021/03/17 10:32:48;;;;;;;5.67;3.30;;;2.70;99.90;;;;;;4188773;28;20261;-65
2021/03/17 10:34:51;;;;;;;6.17;3.30;;;2.70;99.90;;;;;;4188064;28;20331;-64
2021/03/17 10:36:53;;;;;;;6.87;4.23;;;2.70;99.90;;;;;;4188298;28;20359;-63
2021/03/17 10:38:54;;;;;;;5.27;3.83;;;2.70;99.90;;;;;;4189238;28;20335;-66
2021/03/17 10:40:57;;;;;;;8.23;4.70;;;2.80;99.90;;;;;;4189265;28;20269;-64
2021/03/17 10:43:05;;;;;;;4.90;2.63;;;2.80;99.90;;;;;;4188166;28;20245;-62
2021/03/17 10:45:07;;;;;;;6.83;3.73;;;2.80;99.90;;;;;;4189231;28;21086;-62
2021/03/17 10:47:10;;;;;;;13.03;7.20;;;2.90;99.90;;;;;;4188200;28;20257;-66
2021/03/17 10:49:13;;;;;;;8.70;4.83;;;2.90;99.90;;;;;;4189559;28;20344;-63
2021/03/17 10:51:14;;;;;;;9.43;4.83;;;3.00;99.90;;;;;;4188115;28;20266;-61
2021/03/17 10:53:25;;;;;;;9.20;5.20;;;3.00;99.90;;;;;;4189064;28;20302;-62
2021/03/17 10:55:29;;;;;;;12.67;7.40;;;3.00;99.90;;;;;;4187389;28;20318;-63
2021/03/17 10:57:30;;;;;;;7.30;4.60;;;3.00;99.90;;;;;;4188983;28;20382;-62